createdAt,value
2023-03-27T00:00:01.503Z,95545.19
2023-03-27T00:02:29.463Z,95553.78
2023-03-27T00:04:57.261Z,95559.13
2023-03-27T00:07:25.057Z,95557.47
2023-03-27T00:09:54.640Z,95561.88
2023-03-27T00:12:22.396Z,95564.59
2023-03-27T00:14:50.179Z,95571.88
2023-03-27T00:17:18.185Z,95567.94
2023-03-27T00:19:46.469Z,95576.72
2023-03-27T00:22:14.304Z,95571.25
2023-03-27T00:24:42.123Z,95574.25
2023-03-27T00:27:11.490Z,95573.88
2023-03-27T00:29:39.781Z,95585.19
2023-03-27T00:32:08.122Z,95584.25
2023-03-27T00:34:35.896Z,95585.19
2023-03-27T00:37:05.496Z,95596.72
2023-03-27T00:39:33.302Z,95599.50
2023-03-27T00:42:01.213Z,95599.34
2023-03-27T00:44:34.424Z,95613.75
2023-03-27T00:47:05.154Z,95625.75
2023-03-27T00:49:37.829Z,95634.34
2023-03-27T00:52:07.096Z,95630.25
2023-03-27T00:54:40.211Z,95631.47
2023-03-27T00:57:12.985Z,95638.81
2023-03-27T00:59:45.037Z,95641.56
2023-03-27T01:02:14.422Z,95648.31
2023-03-27T01:04:43.915Z,95654.66
2023-03-27T01:07:12.582Z,95660.47
2023-03-27T01:09:41.102Z,95688.22
2023-03-27T01:12:31.685Z,95664.03
2023-03-27T01:15:15.417Z,95668.84
2023-03-27T01:17:58.030Z,95663.84
2023-03-27T01:20:57.007Z,95681.13
2023-03-27T01:23:59.541Z,95678.34
2023-03-27T01:26:59.656Z,95678.44
2023-03-27T01:29:39.468Z,95686.84
2023-03-27T01:32:33.894Z,95703.63
2023-03-27T01:35:19.255Z,95706.00
2023-03-27T01:38:12.908Z,95715.75
2023-03-27T01:40:48.417Z,95704.16
2023-03-27T01:43:20.540Z,95727.00
2023-03-27T01:45:56.026Z,95726.38
2023-03-27T01:48:31.682Z,95740.28
2023-03-27T01:51:04.220Z,95740.72
2023-03-27T01:53:37.090Z,95731.22
2023-03-27T01:56:09.454Z,95740.84
2023-03-27T01:58:46.355Z,95757.38
2023-03-27T02:01:18.095Z,95765.75
2023-03-27T02:03:49.585Z,95767.84
2023-03-27T02:06:21.765Z,95787.81
2023-03-27T02:08:55.712Z,95784.59
2023-03-27T02:11:31.002Z,95777.88
2023-03-27T02:14:02.534Z,95795.34
2023-03-27T02:16:35.242Z,95802.66
2023-03-27T02:19:08.244Z,95808.72
2023-03-27T02:21:36.152Z,95806.50
2023-03-27T02:24:06.721Z,95814.16
2023-03-27T02:26:36.326Z,95834.00
2023-03-27T02:29:25.341Z,95818.63
2023-03-27T02:32:09.051Z,95845.09
2023-03-27T02:34:57.012Z,95840.50
2023-03-27T02:37:37.338Z,95857.91
2023-03-27T02:40:40.702Z,95851.84
2023-03-27T02:43:33.283Z,95870.84
2023-03-27T02:46:06.939Z,95872.75
2023-03-27T02:48:40.956Z,95885.97
2023-03-27T02:51:13.106Z,95884.22
2023-03-27T02:53:46.271Z,95902.59
2023-03-27T02:56:17.655Z,95895.31
2023-03-27T02:58:52.003Z,95924.09
2023-03-27T03:01:37.964Z,95918.19
2023-03-27T03:04:23.131Z,95921.84
2023-03-27T03:07:14.399Z,95941.63
2023-03-27T03:09:44.535Z,95933.59
2023-03-27T03:12:12.321Z,95936.78
2023-03-27T03:14:46.695Z,95944.88
2023-03-27T03:17:17.088Z,95951.31
2023-03-27T03:19:46.264Z,95944.06
2023-03-27T03:22:14.110Z,95951.81
2023-03-27T03:24:43.633Z,95954.97
2023-03-27T03:27:14.843Z,95967.56
2023-03-27T03:29:56.678Z,95971.84
2023-03-27T03:32:28.210Z,95977.78
2023-03-27T03:34:57.898Z,95974.75
2023-03-27T03:37:38.579Z,96000.56
2023-03-27T03:40:11.941Z,96002.59
2023-03-27T03:42:46.392Z,96015.91
2023-03-27T03:45:15.986Z,96008.94
2023-03-27T03:47:45.511Z,96029.97
2023-03-27T03:50:14.066Z,96040.50
2023-03-27T03:52:42.299Z,96038.06
2023-03-27T03:55:12.071Z,96051.22
2023-03-27T03:57:40.776Z,96049.09
2023-03-27T04:00:19.030Z,96056.25
2023-03-27T04:02:54.302Z,96077.38
2023-03-27T04:05:22.905Z,96083.28
2023-03-27T04:07:55.414Z,96089.59
2023-03-27T04:10:42.652Z,96093.97
2023-03-27T04:13:31.375Z,96103.19
2023-03-27T04:16:08.349Z,96112.78
2023-03-27T04:18:41.492Z,96131.28
2023-03-27T04:21:18.088Z,96126.66
2023-03-27T04:23:49.155Z,96144.41
2023-03-27T04:26:26.387Z,96151.38
2023-03-27T04:29:12.817Z,96157.03
2023-03-27T04:32:01.260Z,96166.88
2023-03-27T04:34:41.629Z,96168.81
2023-03-27T04:37:30.474Z,96178.66
2023-03-27T04:40:14.377Z,96177.41
2023-03-27T04:42:44.026Z,96182.94
2023-03-27T04:45:15.071Z,96191.53
2023-03-27T04:47:48.840Z,96202.66
2023-03-27T04:50:17.233Z,96212.69
2023-03-27T04:52:49.041Z,96224.84
2023-03-27T04:55:19.601Z,96221.63
2023-03-27T04:57:50.344Z,96223.72
2023-03-27T05:00:19.454Z,96229.94
2023-03-27T05:02:50.047Z,96224.75
2023-03-27T05:05:25.030Z,96240.84
2023-03-27T05:07:53.989Z,96244.75
2023-03-27T05:10:25.888Z,96242.31
2023-03-27T05:12:57.153Z,96249.53
2023-03-27T05:15:26.489Z,96248.69
2023-03-27T05:17:57.148Z,96257.44
2023-03-27T05:20:27.102Z,96267.00
2023-03-27T05:22:56.472Z,96273.09
2023-03-27T05:25:28.826Z,96285.88
2023-03-27T05:27:57.943Z,96281.59
2023-03-27T05:30:30.620Z,96285.84
2023-03-27T05:33:29.236Z,96294.66
2023-03-27T05:35:58.676Z,96289.63
2023-03-27T05:38:27.873Z,96298.28
2023-03-27T05:41:16.873Z,96315.78
2023-03-27T05:43:51.139Z,96322.16
2023-03-27T05:46:21.740Z,96326.53
2023-03-27T05:48:59.146Z,96333.56
2023-03-27T05:51:27.598Z,96344.03
2023-03-27T05:53:56.835Z,96338.00
2023-03-27T05:56:34.563Z,96355.41
2023-03-27T05:59:04.479Z,96362.91
2023-03-27T06:01:36.540Z,96366.28
2023-03-27T06:04:06.168Z,96374.63
2023-03-27T06:07:10.588Z,96386.34
2023-03-27T06:09:39.029Z,96380.03
2023-03-27T06:12:26.173Z,96391.69
2023-03-27T06:15:02.633Z,96403.22
2023-03-27T06:17:36.782Z,96394.31
2023-03-27T06:20:11.787Z,96406.22
2023-03-27T06:22:45.200Z,96417.38
2023-03-27T06:25:14.633Z,96432.88
2023-03-27T06:27:43.479Z,96437.66
2023-03-27T06:30:13.026Z,96435.53
2023-03-27T06:32:46.254Z,96448.13
2023-03-27T06:35:17.232Z,96448.69
2023-03-27T06:38:08.164Z,96461.00
2023-03-27T06:40:40.486Z,96469.91
2023-03-27T06:43:10.238Z,96466.00
2023-03-27T06:45:51.259Z,96483.19
2023-03-27T06:48:37.920Z,96483.19
2023-03-27T06:51:09.146Z,96485.53
2023-03-27T06:53:38.335Z,96503.06
2023-03-27T06:56:08.083Z,96494.97
2023-03-27T06:58:56.519Z,96504.75
2023-03-27T07:01:28.335Z,96508.44
2023-03-27T07:04:15.466Z,96530.91
2023-03-27T07:06:56.982Z,96517.69
2023-03-27T07:09:25.970Z,96523.31
2023-03-27T07:12:04.212Z,96521.81
2023-03-27T07:14:33.378Z,96535.28
2023-03-27T07:17:01.490Z,96533.25
2023-03-27T07:19:41.866Z,96538.19
2023-03-27T07:22:15.774Z,96547.19
2023-03-27T07:24:43.848Z,96551.69
2023-03-27T07:27:12.200Z,96553.38
2023-03-27T07:29:41.536Z,96561.66
2023-03-27T07:32:22.306Z,96561.06
2023-03-27T07:34:57.976Z,96553.69
2023-03-27T07:37:45.696Z,96553.66
2023-03-27T07:40:39.380Z,96560.16
2023-03-27T07:43:28.797Z,96563.00
2023-03-27T07:45:57.682Z,96571.25
2023-03-27T07:48:27.819Z,96596.00
2023-03-27T07:51:07.175Z,96592.72
2023-03-27T07:53:41.666Z,96607.47
2023-03-27T07:56:24.575Z,96615.88
2023-03-27T07:59:11.923Z,96622.47
2023-03-27T08:01:42.263Z,96617.41
2023-03-27T08:04:11.252Z,96626.59
2023-03-27T08:06:42.601Z,96638.72
2023-03-27T08:09:18.089Z,96649.41
2023-03-27T08:11:47.538Z,96650.75
2023-03-27T08:14:16.346Z,96647.34
2023-03-27T08:16:45.445Z,96666.91
2023-03-27T08:19:14.335Z,96665.03
2023-03-27T08:21:47.009Z,96665.50
2023-03-27T08:24:18.014Z,96663.06
2023-03-27T08:27:07.536Z,96669.13
2023-03-27T08:29:40.564Z,96661.19
2023-03-27T08:32:10.675Z,96667.84
2023-03-27T08:34:42.447Z,96668.22
2023-03-27T08:37:11.063Z,96677.03
2023-03-27T08:39:51.623Z,96675.69
2023-03-27T08:42:24.638Z,96679.63
2023-03-27T08:44:55.382Z,96688.97
2023-03-27T08:47:41.539Z,96682.25
2023-03-27T08:50:26.992Z,96689.22
2023-03-27T08:53:16.331Z,96693.75
2023-03-27T08:55:46.283Z,96703.03
2023-03-27T08:58:38.118Z,96711.16
2023-03-27T09:01:41.128Z,96708.66
2023-03-27T09:04:25.072Z,96704.28
2023-03-27T09:07:02.870Z,96712.88
2023-03-27T09:09:46.852Z,96712.16
2023-03-27T09:12:29.686Z,96725.88
2023-03-27T09:15:04.438Z,96722.22
2023-03-27T09:17:36.665Z,96722.38
2023-03-27T09:20:19.111Z,96730.16
2023-03-27T09:22:53.583Z,96729.63
2023-03-27T09:25:50.698Z,96738.78
2023-03-27T09:28:37.070Z,96738.38
2023-03-27T09:31:21.007Z,96742.56
2023-03-27T09:33:50.421Z,96743.72
2023-03-27T09:36:18.370Z,96756.47
2023-03-27T09:38:50.836Z,96756.06
2023-03-27T09:41:26.516Z,96752.59
2023-03-27T09:44:00.329Z,96757.06
2023-03-27T09:46:30.167Z,96772.75
2023-03-27T09:49:04.073Z,96765.53
2023-03-27T09:51:41.162Z,96758.44
2023-03-27T09:54:17.886Z,96796.09
2023-03-27T09:56:48.620Z,96772.19
2023-03-27T09:59:37.646Z,96752.56
2023-03-27T10:02:19.358Z,96755.03
2023-03-27T10:04:59.963Z,96765.84
2023-03-27T10:07:33.480Z,96782.28
2023-03-27T10:10:17.530Z,96781.84
2023-03-27T10:13:10.700Z,96790.59
2023-03-27T10:15:48.687Z,96784.56
2023-03-27T10:18:28.144Z,96785.34
2023-03-27T10:21:19.747Z,96793.78
2023-03-27T10:23:49.763Z,96794.31
2023-03-27T10:26:38.506Z,96787.78
2023-03-27T10:29:22.926Z,96800.53
2023-03-27T10:31:54.123Z,96806.41
2023-03-27T10:34:57.366Z,96807.72
2023-03-27T10:37:50.439Z,96812.25
2023-03-27T10:40:37.650Z,96815.75
2023-03-27T10:43:14.885Z,96806.66
2023-03-27T10:45:48.914Z,96834.34
2023-03-27T10:48:34.693Z,96814.53
2023-03-27T10:51:06.716Z,96825.78
2023-03-27T10:53:57.542Z,96828.22
2023-03-27T10:56:46.279Z,96824.25
2023-03-27T10:59:21.537Z,96814.25
2023-03-27T11:02:01.011Z,96821.28
2023-03-27T11:04:43.010Z,96817.75
2023-03-27T11:07:20.757Z,96829.00
2023-03-27T11:09:58.658Z,96833.84
2023-03-27T11:12:37.687Z,96832.59
2023-03-27T11:15:12.800Z,96827.69
2023-03-27T11:17:45.171Z,96823.78
2023-03-27T11:20:31.401Z,96836.03
2023-03-27T11:23:20.440Z,96843.78
2023-03-27T11:26:12.049Z,96838.41
2023-03-27T11:28:47.174Z,96848.41
2023-03-27T11:31:25.969Z,96848.38
2023-03-27T11:34:00.105Z,96847.78
2023-03-27T11:36:37.601Z,96846.53
2023-03-27T11:39:27.167Z,96854.06
2023-03-27T11:41:59.510Z,96858.34
2023-03-27T11:44:30.291Z,96858.19
2023-03-27T11:47:47.413Z,96857.78
2023-03-27T11:50:26.225Z,96860.47
2023-03-27T11:53:14.094Z,96851.34
2023-03-27T11:56:17.371Z,96854.31
2023-03-27T11:59:05.969Z,96847.88
2023-03-27T12:01:40.552Z,96866.66
2023-03-27T12:04:20.945Z,96853.88
2023-03-27T12:07:33.840Z,96865.06
2023-03-27T12:10:29.113Z,96853.56
2023-03-27T12:13:40.710Z,96854.41
2023-03-27T12:16:28.123Z,96860.16
2023-03-27T12:19:27.607Z,96861.13
2023-03-27T12:22:24.389Z,96867.75
2023-03-27T12:25:16.896Z,96871.47
2023-03-27T12:28:22.941Z,96867.75
2023-03-27T12:31:29.032Z,96885.03
2023-03-27T12:34:02.982Z,96894.31
2023-03-27T12:36:37.738Z,96892.28
2023-03-27T12:39:16.210Z,96881.97
2023-03-27T12:41:46.175Z,96880.09
2023-03-27T12:44:31.331Z,96885.53
2023-03-27T12:47:16.970Z,96883.50
2023-03-27T12:49:48.388Z,96886.53
2023-03-27T12:52:27.478Z,96883.47
2023-03-27T12:55:32.092Z,96881.28
2023-03-27T12:58:02.797Z,96878.66
2023-03-27T13:01:00.304Z,96883.75
2023-03-27T13:04:12.617Z,96883.31
2023-03-27T13:06:50.867Z,96887.03
2023-03-27T13:09:43.160Z,96877.91
2023-03-27T13:12:37.892Z,96883.22
2023-03-27T13:15:23.795Z,96880.19
2023-03-27T13:18:25.616Z,96880.50
2023-03-27T13:21:01.478Z,96868.75
2023-03-27T13:23:47.069Z,96875.56
2023-03-27T13:26:34.828Z,96875.97
2023-03-27T13:29:04.109Z,96879.69
2023-03-27T13:32:08.714Z,96889.06
2023-03-27T13:35:04.964Z,96881.72
2023-03-27T13:37:59.074Z,96880.38
2023-03-27T13:40:36.684Z,96895.72
2023-03-27T13:43:18.499Z,96902.72
2023-03-27T13:45:52.694Z,96903.16
2023-03-27T13:49:04.669Z,96919.53
2023-03-27T13:51:59.078Z,96936.06
2023-03-27T13:54:48.325Z,96935.56
2023-03-27T13:57:29.516Z,96952.25
2023-03-27T14:00:33.905Z,96968.41
2023-03-27T14:03:41.409Z,96961.41
2023-03-27T14:06:55.152Z,96968.34
2023-03-27T14:09:35.622Z,96965.34
2023-03-27T14:12:15.993Z,96976.06
2023-03-27T14:15:24.253Z,96970.88
2023-03-27T14:18:32.019Z,96973.25
2023-03-27T14:21:02.245Z,96968.66
2023-03-27T14:23:50.398Z,96966.97
2023-03-27T14:26:38.129Z,96965.28
2023-03-27T14:29:06.973Z,96969.97
2023-03-27T14:31:44.623Z,96960.78
2023-03-27T14:34:47.133Z,96960.50
2023-03-27T14:37:47.310Z,96974.13
2023-03-27T14:40:28.501Z,96963.56
2023-03-27T14:43:02.164Z,96971.56
2023-03-27T14:45:34.207Z,96965.94
2023-03-27T14:48:08.281Z,96959.59
2023-03-27T14:50:48.749Z,96947.84
2023-03-27T14:53:26.070Z,96954.19
2023-03-27T14:56:11.496Z,96952.56
2023-03-27T14:58:59.144Z,96961.25
2023-03-27T15:01:35.043Z,96952.31
2023-03-27T15:04:04.436Z,96943.84
2023-03-27T15:06:36.441Z,96947.72
2023-03-27T15:09:13.318Z,96940.78
2023-03-27T15:12:00.133Z,96940.75
2023-03-27T15:14:33.535Z,96944.63
2023-03-27T15:17:07.584Z,96945.59
2023-03-27T15:19:45.432Z,96942.06
2023-03-27T15:22:22.929Z,96947.56
2023-03-27T15:24:57.052Z,96954.13
2023-03-27T15:27:28.998Z,96954.13
2023-03-27T15:30:01.417Z,96954.75
2023-03-27T15:32:33.892Z,96953.75
2023-03-27T15:35:05.269Z,96956.00
2023-03-27T15:37:35.033Z,96970.31
2023-03-27T15:40:32.923Z,96980.28
2023-03-27T15:43:07.801Z,96978.38
2023-03-27T15:45:40.333Z,96985.19
2023-03-27T15:48:19.702Z,96999.13
2023-03-27T15:50:55.960Z,97016.28
2023-03-27T15:53:39.068Z,97014.09
2023-03-27T15:56:15.910Z,97028.16
2023-03-27T15:58:51.213Z,97025.47
2023-03-27T16:01:23.550Z,97037.13
2023-03-27T16:03:52.285Z,97040.34
2023-03-27T16:06:28.084Z,97044.13
2023-03-27T16:08:56.578Z,97034.13
2023-03-27T16:11:43.683Z,97021.88
2023-03-27T16:14:27.352Z,97021.66
2023-03-27T16:17:11.816Z,97015.91
2023-03-27T16:19:44.110Z,97019.41
2023-03-27T16:22:13.156Z,97021.22
2023-03-27T16:24:41.454Z,97015.31
2023-03-27T16:27:11.218Z,97011.81
2023-03-27T16:29:38.968Z,97024.88
2023-03-27T16:32:13.228Z,97019.25
2023-03-27T16:34:41.225Z,97023.44
2023-03-27T16:37:09.306Z,97023.44
2023-03-27T16:39:37.767Z,97019.19
2023-03-27T16:42:05.954Z,97010.53
2023-03-27T16:44:33.857Z,97012.59
2023-03-27T16:47:01.827Z,97014.94
2023-03-27T16:49:31.066Z,97010.69
2023-03-27T16:51:58.907Z,97025.50
2023-03-27T16:54:26.749Z,97033.88
2023-03-27T16:56:54.822Z,97032.03
2023-03-27T16:59:23.008Z,97041.66
2023-03-27T17:01:51.262Z,97041.41
2023-03-27T17:04:19.162Z,97040.38
2023-03-27T17:06:48.349Z,97045.59
2023-03-27T17:09:16.667Z,97044.91
2023-03-27T17:11:44.608Z,97047.56
2023-03-27T17:14:12.572Z,97051.22
2023-03-27T17:16:40.360Z,97045.94
2023-03-27T17:19:08.414Z,97051.22
2023-03-27T17:21:36.230Z,97053.94
2023-03-27T17:24:06.352Z,97052.34
2023-03-27T17:26:35.837Z,97054.03
2023-03-27T17:29:06.011Z,97049.00
2023-03-27T17:31:34.624Z,97062.22
2023-03-27T17:34:02.903Z,97058.78
2023-03-27T17:36:40.155Z,97057.94
2023-03-27T17:39:13.279Z,97067.69
2023-03-27T17:41:41.589Z,97066.16
2023-03-27T17:44:11.648Z,97071.31
2023-03-27T17:46:39.859Z,97073.16
2023-03-27T17:49:07.750Z,97081.09
2023-03-27T17:51:37.051Z,97082.88
2023-03-27T17:54:05.498Z,97086.72
2023-03-27T17:56:34.770Z,97100.63
2023-03-27T17:59:02.780Z,97096.31
2023-03-27T18:01:30.682Z,97096.13
2023-03-27T18:04:00.616Z,97101.53
2023-03-27T18:06:28.643Z,97102.53
2023-03-27T18:08:56.536Z,97099.19
2023-03-27T18:11:24.562Z,97108.72
2023-03-27T18:13:53.754Z,97116.69
2023-03-27T18:16:23.144Z,97123.75
2023-03-27T18:18:54.180Z,97132.47
2023-03-27T18:21:22.267Z,97126.41
2023-03-27T18:23:51.563Z,97120.38
2023-03-27T18:26:21.419Z,97118.69
2023-03-27T18:28:49.186Z,97125.69
2023-03-27T18:31:18.839Z,97136.97
2023-03-27T18:33:46.767Z,97132.31
2023-03-27T18:36:15.576Z,97129.72
2023-03-27T18:38:44.135Z,97139.34
2023-03-27T18:41:12.293Z,97143.56
2023-03-27T18:43:40.402Z,97146.53
2023-03-27T18:46:08.915Z,97155.16
2023-03-27T18:48:38.188Z,97146.66
2023-03-27T18:51:07.484Z,97154.28
2023-03-27T18:53:36.362Z,97146.56
2023-03-27T18:56:05.304Z,97160.56
2023-03-27T18:58:35.407Z,97164.13
2023-03-27T19:01:08.228Z,97160.66
2023-03-27T19:03:39.291Z,97161.75
2023-03-27T19:06:10.194Z,97160.91
2023-03-27T19:08:39.060Z,97161.00
2023-03-27T19:11:07.260Z,97161.94
2023-03-27T19:13:53.682Z,97162.06
2023-03-27T19:16:34.054Z,97163.03
2023-03-27T19:19:15.951Z,97166.31
2023-03-27T19:21:53.538Z,97172.41
2023-03-27T19:24:30.828Z,97173.34
2023-03-27T19:26:59.588Z,97170.72
2023-03-27T19:29:27.608Z,97173.38
2023-03-27T19:31:55.690Z,97183.91
2023-03-27T19:34:40.130Z,97178.69
2023-03-27T19:37:10.136Z,97183.81
2023-03-27T19:39:38.139Z,97187.31
2023-03-27T19:42:06.114Z,97186.22
2023-03-27T19:44:37.984Z,97191.47
2023-03-27T19:47:07.513Z,97189.78
2023-03-27T19:49:37.152Z,97201.88
2023-03-27T19:52:19.356Z,97200.91
2023-03-27T19:54:47.674Z,97206.13
2023-03-27T19:57:15.871Z,97196.59
2023-03-27T19:59:43.789Z,97198.28
2023-03-27T20:02:12.587Z,97202.41
2023-03-27T20:04:41.938Z,97212.00
2023-03-27T20:07:10.025Z,97218.88
2023-03-27T20:09:38.195Z,97214.56
2023-03-27T20:12:07.432Z,97217.19
2023-03-27T20:14:35.404Z,97224.09
2023-03-27T20:17:06.293Z,97231.06
2023-03-27T20:19:36.730Z,97232.00
2023-03-27T20:22:08.049Z,97226.66
2023-03-27T20:24:36.957Z,97232.00
2023-03-27T20:27:07.059Z,97224.09
2023-03-27T20:29:35.000Z,97226.66
2023-03-27T20:32:03.530Z,97232.84
2023-03-27T20:34:32.193Z,97247.56
2023-03-27T20:37:00.901Z,97244.97
2023-03-27T20:39:38.714Z,97253.66
2023-03-27T20:42:07.765Z,97253.66
2023-03-27T20:44:36.018Z,97260.13
2023-03-27T20:47:10.906Z,97256.63
2023-03-27T20:49:41.678Z,97263.19
2023-03-27T20:52:11.583Z,97258.66
2023-03-27T20:54:41.925Z,97260.47
2023-03-27T20:57:12.471Z,97262.28
2023-03-27T20:59:40.844Z,97260.72
2023-03-27T21:02:14.610Z,97264.50
2023-03-27T21:04:42.517Z,97268.88
2023-03-27T21:07:10.590Z,97273.78
2023-03-27T21:09:38.894Z,97276.38
2023-03-27T21:12:09.040Z,97277.25
2023-03-27T21:14:38.130Z,97276.38
2023-03-27T21:17:06.013Z,97277.25
2023-03-27T21:19:33.870Z,97274.66
2023-03-27T21:22:01.817Z,97279.75
2023-03-27T21:24:29.683Z,97280.78
2023-03-27T21:26:58.522Z,97280.69
2023-03-27T21:29:27.829Z,97286.72
2023-03-27T21:31:56.124Z,97281.59
2023-03-27T21:34:24.193Z,97288.47
2023-03-27T21:36:52.081Z,97285.88
2023-03-27T21:39:20.664Z,97293.72
2023-03-27T21:41:49.246Z,97294.53
2023-03-27T21:44:17.177Z,97291.09
2023-03-27T21:46:46.391Z,97294.66
2023-03-27T21:49:14.210Z,97292.56
2023-03-27T21:51:42.105Z,97300.22
2023-03-27T21:54:09.911Z,97290.09
2023-03-27T21:56:37.755Z,97292.66
2023-03-27T21:59:05.605Z,97290.16
2023-03-27T22:01:33.513Z,97293.72
2023-03-27T22:04:02.752Z,97302.50
2023-03-27T22:06:30.797Z,97296.66
2023-03-27T22:08:59.322Z,97298.50
2023-03-27T22:11:27.712Z,97295.94
2023-03-27T22:13:55.876Z,97295.25
2023-03-27T22:16:23.860Z,97303.88
2023-03-27T22:18:51.874Z,97304.72
2023-03-27T22:21:23.592Z,97310.06
2023-03-27T22:23:51.976Z,97305.88
2023-03-27T22:26:20.886Z,97302.47
2023-03-27T22:28:48.787Z,97307.75
2023-03-27T22:31:17.145Z,97313.84
2023-03-27T22:33:45.615Z,97312.34
2023-03-27T22:36:13.934Z,97316.84
2023-03-27T22:38:43.575Z,97315.91
2023-03-27T22:41:13.929Z,97323.69
2023-03-27T22:43:42.529Z,97324.69
2023-03-27T22:46:12.629Z,97329.13
2023-03-27T22:48:40.808Z,97342.31
2023-03-27T22:51:10.714Z,97337.09
2023-03-27T22:53:39.106Z,97337.31
2023-03-27T22:56:09.792Z,97339.13
2023-03-27T22:58:37.709Z,97345.41
2023-03-27T23:01:07.100Z,97350.69
2023-03-27T23:03:35.319Z,97342.94
2023-03-27T23:06:03.522Z,97349.97
2023-03-27T23:08:31.830Z,97356.09
2023-03-27T23:11:01.934Z,97367.47
2023-03-27T23:13:33.075Z,97361.50
2023-03-27T23:16:01.513Z,97359.81
2023-03-27T23:18:29.655Z,97364.25
2023-03-27T23:20:59.544Z,97363.44
2023-03-27T23:23:28.956Z,97368.59
2023-03-27T23:25:57.915Z,97368.72
2023-03-27T23:28:26.919Z,97369.69
2023-03-27T23:30:58.875Z,97379.13
2023-03-27T23:33:27.037Z,97368.75
2023-03-27T23:36:01.105Z,97371.22
2023-03-27T23:38:29.412Z,97378.25
2023-03-27T23:40:59.072Z,97379.97
2023-03-27T23:43:29.124Z,97379.13
2023-03-27T23:46:00.272Z,97377.41
2023-03-27T23:48:29.201Z,97380.00
2023-03-27T23:50:57.958Z,97387.78
2023-03-27T23:53:27.493Z,97398.25
2023-03-27T23:55:56.987Z,97389.53
2023-03-27T23:58:28.713Z,97393.97
